Terminal Aerodrome Forecast
Issued by NWS

Home | Current Version | Previous Version | Text Only | Print | Product List | Glossary On
Versions: 1 2 3 4 5 6 7 8 9 10 11 12 13 14 15 16 17 18 19
000
FTUS46 KHNX 182336
TAFMCE
TAF

TAF
KBFL 182335Z 1900/1924 31004KT P6SM SCT250
     FM190600 VRB03KT 4SM HZ BKN250
     FM191200 11003KT 2SM BR SCT100 BKN200
     FM191800 16002KT 3SM HZ OVC150
     FM192100 28003KT 4SM HZ OVC050=

USA.gov is the U.S. government's official web portal to all federal, state and local government web resources and services.